Time;durP1;ratioP1;P1;durP2;ratioP2;P2;SDS_P1;SDS_P2;PMS_P1;PMS_P2;Temp;Humidity;BMP_temperature;BMP_pressure;BME280_temperature;BME280_humidity;BME280_pressure;Samples;Min_cycle;Max_cycle;Signal;HPM_P1;HPM_P2
2024/03/22 00:01:25;;;;;;;12.60;6.93;;;;;;;2.92;100.00;99089.03;6107198;19;20007;-71
2024/03/22 00:03:25;;;;;;;12.25;7.82;;;;;;;2.91;100.00;99084.69;6108589;19;20009;-71
2024/03/22 00:05:26;;;;;;;16.42;7.65;;;;;;;2.93;100.00;99083.25;6110544;19;20531;-71
2024/03/22 00:07:26;;;;;;;13.38;7.28;;;;;;;2.91;100.00;99069.09;6109047;19;20006;-71
2024/03/22 00:09:26;;;;;;;14.35;8.27;;;;;;;2.88;100.00;99066.97;6101158;19;20014;-71
2024/03/22 00:11:26;;;;;;;15.88;8.55;;;;;;;2.85;100.00;99064.06;6111057;19;20096;-71
2024/03/22 00:13:27;;;;;;;14.32;7.60;;;;;;;2.81;100.00;99053.78;6109707;19;20006;-71
2024/03/22 00:15:27;;;;;;;20.15;8.20;;;;;;;2.84;100.00;99052.34;6110300;19;20007;-71
2024/03/22 00:17:27;;;;;;;15.65;8.90;;;;;;;2.83;100.00;99056.19;6108896;19;20638;-71
2024/03/22 00:19:28;;;;;;;20.08;10.15;;;;;;;2.82;100.00;99051.84;6109839;19;20038;-71
2024/03/22 00:21:29;;;;;;;19.75;11.40;;;;;;;2.82;100.00;99054.59;6109856;19;20018;-71
2024/03/22 00:23:30;;;;;;;21.52;11.68;;;;;;;2.81;100.00;99052.94;6110761;19;20019;-71
2024/03/22 00:25:31;;;;;;;23.67;13.23;;;;;;;2.88;100.00;99049.78;6107282;19;20026;-71
2024/03/22 00:27:31;;;;;;;19.77;10.98;;;;;;;2.96;100.00;99044.34;6106439;19;20006;-71
2024/03/22 00:29:31;;;;;;;20.25;11.32;;;;;;;3.03;100.00;99041.16;6109741;19;20010;-71
2024/03/22 00:31:32;;;;;;;20.60;11.13;;;;;;;3.09;100.00;99045.38;6109908;19;20019;-71
2024/03/22 00:33:32;;;;;;;15.52;8.90;;;;;;;3.12;100.00;99038.47;6109068;19;20363;-71
2024/03/22 00:35:32;;;;;;;14.25;8.57;;;;;;;3.15;100.00;99041.41;6109467;19;20818;-71
2024/03/22 00:37:33;;;;;;;13.73;7.72;;;;;;;3.13;100.00;99035.41;6107790;19;20014;-71
2024/03/22 00:39:34;;;;;;;10.98;6.72;;;;;;;3.07;100.00;99032.03;6109078;19;20025;-71
2024/03/22 00:41:34;;;;;;;11.07;6.88;;;;;;;3.05;100.00;99031.53;6108751;19;20614;-71
2024/03/22 00:43:35;;;;;;;11.65;6.95;;;;;;;3.00;100.00;99017.22;6109142;19;20051;-71
2024/03/22 00:45:35;;;;;;;10.82;7.07;;;;;;;2.92;100.00;99015.25;6108407;19;20006;-71
2024/03/22 00:47:36;;;;;;;9.77;6.38;;;;;;;2.92;100.00;99021.50;6107041;19;20410;-71
2024/03/22 00:49:36;;;;;;;11.13;6.57;;;;;;;2.85;100.00;99020.34;6108627;19;20014;-71
2024/03/22 00:51:36;;;;;;;15.10;6.47;;;;;;;2.86;100.00;99013.75;6109173;19;20006;-71
2024/03/22 00:53:37;;;;;;;14.15;7.18;;;;;;;2.77;100.00;99011.78;6109042;19;20010;-71
2024/03/22 00:55:37;;;;;;;10.63;6.47;;;;;;;2.75;100.00;99007.75;6107835;19;20010;-71
2024/03/22 00:57:37;;;;;;;10.13;6.40;;;;;;;2.73;100.00;99001.78;6107478;19;20009;-70
2024/03/22 00:59:37;;;;;;;11.25;6.72;;;;;;;2.69;100.00;99006.28;6106946;19;20759;-70
2024/03/22 01:01:38;;;;;;;13.77;7.10;;;;;;;2.67;100.00;99001.13;6109237;19;20016;-70
2024/03/22 01:03:39;;;;;;;7.95;6.05;;;;;;;2.64;100.00;98990.81;6108448;19;20010;-70
2024/03/22 01:05:40;;;;;;;13.82;6.85;;;;;;;2.61;100.00;98990.63;6106967;19;20110;-71
2024/03/22 01:07:40;;;;;;;14.30;7.15;;;;;;;2.56;100.00;98996.22;6107735;19;20010;-71
2024/03/22 01:09:41;;;;;;;12.98;7.15;;;;;;;2.50;100.00;98987.38;6102835;19;20451;-71
2024/03/22 01:11:41;;;;;;;12.23;6.90;;;;;;;2.44;100.00;98986.69;6101799;19;20015;-71
2024/03/22 01:13:42;;;;;;;10.85;6.68;;;;;;;2.43;100.00;98982.34;6102302;19;20520;-71
2024/03/22 01:15:42;;;;;;;9.07;6.10;;;;;;;2.41;100.00;98975.59;6100133;19;20313;-71
2024/03/22 01:17:43;;;;;;;13.80;7.20;;;;;;;2.46;100.00;98975.44;6100653;19;20006;-71
2024/03/22 01:19:43;;;;;;;10.88;6.40;;;;;;;2.46;100.00;98972.72;6101554;19;20038;-70
2024/03/22 01:21:43;;;;;;;15.40;7.25;;;;;;;2.47;100.00;98971.59;6101607;19;20021;-71
2024/03/22 01:23:44;;;;;;;8.98;6.10;;;;;;;2.46;100.00;98969.97;6100742;19;20006;-71
2024/03/22 01:25:45;;;;;;;11.63;6.63;;;;;;;2.44;100.00;98964.03;6100867;19;20086;-71
2024/03/22 01:27:45;;;;;;;9.77;7.10;;;;;;;2.43;100.00;98962.41;6099947;19;20010;-71
2024/03/22 01:29:46;;;;;;;11.05;7.00;;;;;;;2.47;100.00;98960.66;6100819;19;20121;-71
2024/03/22 01:31:48;;;;;;;13.07;7.18;;;;;;;2.51;100.00;98957.00;6101063;19;20191;-71
2024/03/22 01:33:48;;;;;;;13.35;7.18;;;;;;;2.51;100.00;98951.53;6101104;19;20078;-71
2024/03/22 01:35:48;;;;;;;13.40;6.90;;;;;;;2.53;100.00;98959.41;6102894;19;20019;-71
2024/03/22 01:37:49;;;;;;;8.65;6.32;;;;;;;2.52;100.00;98952.34;6111084;19;20011;-71
2024/03/22 01:39:49;;;;;;;12.38;7.57;;;;;;;2.53;100.00;98951.22;6112547;19;20364;-71
2024/03/22 01:41:51;;;;;;;15.75;7.95;;;;;;;2.57;100.00;98949.50;6112892;19;20063;-71
2024/03/22 01:43:51;;;;;;;12.77;7.38;;;;;;;2.56;100.00;98945.13;6112025;19;20002;-71
2024/03/22 01:45:51;;;;;;;14.00;7.13;;;;;;;2.58;100.00;98948.38;6112027;19;20003;-71
2024/03/22 01:47:53;;;;;;;14.55;7.25;;;;;;;2.53;100.00;98949.31;6111613;19;20253;-71
2024/03/22 01:49:55;;;;;;;8.98;6.63;;;;;;;2.59;100.00;98938.25;6111866;19;20473;-71
2024/03/22 01:51:55;;;;;;;12.55;7.07;;;;;;;2.58;100.00;98939.38;6112092;19;20014;-71
2024/03/22 01:53:57;;;;;;;13.73;7.60;;;;;;;2.61;100.00;98933.28;6112137;19;20303;-71
2024/03/22 01:55:57;;;;;;;10.48;6.38;;;;;;;2.65;100.00;98935.06;6111299;19;20003;-71
2024/03/22 01:57:58;;;;;;;13.77;7.43;;;;;;;2.66;100.00;98925.75;6112262;19;20006;-71
2024/03/22 01:59:59;;;;;;;10.27;6.30;;;;;;;2.64;100.00;98927.97;6109813;19;20031;-71
2024/03/22 02:02:00;;;;;;;13.07;6.68;;;;;;;2.65;100.00;98932.34;6112411;19;20014;-71
2024/03/22 02:04:00;;;;;;;9.77;6.30;;;;;;;2.60;100.00;98916.06;6111845;19;20370;-71
2024/03/22 02:06:00;;;;;;;10.55;6.28;;;;;;;2.62;100.00;98922.03;6110880;19;20437;-71
2024/03/22 02:08:01;;;;;;;10.10;6.47;;;;;;;2.58;100.00;98926.50;6110399;19;20017;-71
2024/03/22 02:10:02;;;;;;;8.07;5.75;;;;;;;2.51;100.00;98924.22;6114273;19;20002;-71
2024/03/22 02:12:02;;;;;;;9.93;6.15;;;;;;;2.56;100.00;98919.72;6118309;19;19999;-71
2024/03/22 02:14:03;;;;;;;14.27;6.05;;;;;;;2.53;100.00;98911.06;6118512;19;20557;-71
2024/03/22 02:16:04;;;;;;;10.38;5.85;;;;;;;2.49;100.00;98915.56;6116764;19;19997;-71
2024/03/22 02:18:04;;;;;;;11.82;6.57;;;;;;;2.47;100.00;98927.88;6117544;19;20022;-71
2024/03/22 02:20:06;;;;;;;11.10;5.88;;;;;;;2.49;100.00;98914.75;6118004;19;19999;-71
2024/03/22 02:22:06;;;;;;;11.32;6.20;;;;;;;2.44;100.00;98910.22;6118497;19;20597;-71
2024/03/22 02:24:06;;;;;;;13.15;7.00;;;;;;;2.43;100.00;98919.53;6118777;19;19999;-71
2024/03/22 02:26:07;;;;;;;9.82;6.30;;;;;;;2.40;100.00;98911.13;6117134;19;20024;-71
2024/03/22 02:28:08;;;;;;;13.95;6.22;;;;;;;2.41;100.00;98918.25;6117866;19;20086;-70
2024/03/22 02:30:09;;;;;;;10.35;5.70;;;;;;;2.44;100.00;98917.59;6118249;19;20006;-70
2024/03/22 02:32:10;;;;;;;9.77;6.00;;;;;;;2.44;100.00;98917.59;6118087;19;20297;-71
2024/03/22 02:34:10;;;;;;;15.13;7.20;;;;;;;2.44;100.00;98918.41;6117712;19;20002;-70
2024/03/22 02:36:11;;;;;;;11.93;6.53;;;;;;;2.44;100.00;98909.41;6115292;19;20026;-70
2024/03/22 02:38:11;;;;;;;10.23;6.43;;;;;;;2.44;100.00;98914.88;6117528;19;20481;-70
2024/03/22 02:40:12;;;;;;;10.57;6.25;;;;;;;2.45;100.00;98911.00;6118125;19;20090;-71
2024/03/22 02:42:12;;;;;;;9.55;6.22;;;;;;;2.46;100.00;98913.44;6117715;19;20006;-71
2024/03/22 02:44:12;;;;;;;8.73;6.18;;;;;;;2.49;100.00;98910.09;6118056;19;20447;-71
2024/03/22 02:46:13;;;;;;;9.48;6.28;;;;;;;2.53;100.00;98904.78;6115490;19;20009;-71
2024/03/22 02:48:13;;;;;;;9.13;6.18;;;;;;;2.57;100.00;98896.78;6111533;19;20410;-71
2024/03/22 02:50:13;;;;;;;13.52;6.28;;;;;;;2.58;100.00;98896.47;6110968;19;20011;-71
2024/03/22 02:52:14;;;;;;;9.25;5.72;;;;;;;2.58;100.00;98895.66;6110864;19;20027;-71
2024/03/22 02:54:14;;;;;;;10.43;6.05;;;;;;;2.63;100.00;98890.84;6111839;19;19999;-71
2024/03/22 02:56:14;;;;;;;11.30;5.93;;;;;;;2.63;100.00;98890.84;6109800;19;20006;-71
2024/03/22 02:58:17;;;;;;;11.40;5.80;;;;;;;2.58;100.00;98896.47;6111432;19;19998;-71
2024/03/22 03:00:18;;;;;;;9.82;5.75;;;;;;;2.59;100.00;98894.53;6108744;19;20011;-71
2024/03/22 03:02:18;;;;;;;12.65;5.90;;;;;;;2.58;100.00;98901.94;6111515;19;20104;-71
2024/03/22 03:04:18;;;;;;;9.95;5.65;;;;;;;2.54;100.00;98898.19;6111731;19;19999;-71
2024/03/22 03:06:19;;;;;;;8.38;5.55;;;;;;;2.57;100.00;98904.97;6108830;19;20006;-71
2024/03/22 03:08:20;;;;;;;9.55;5.30;;;;;;;2.50;100.00;98889.03;6111647;19;20359;-71
2024/03/22 03:10:20;;;;;;;10.48;5.65;;;;;;;2.51;100.00;98902.38;6110970;19;20015;-71
2024/03/22 03:12:21;;;;;;;7.57;4.95;;;;;;;2.51;100.00;98901.56;6110846;19;20405;-71
2024/03/22 03:14:21;;;;;;;10.18;5.32;;;;;;;2.45;100.00;98894.63;6110827;19;20099;-71
2024/03/22 03:16:21;;;;;;;9.70;5.70;;;;;;;2.40;100.00;98892.84;6110241;19;20003;-71
2024/03/22 03:18:22;;;;;;;10.00;5.75;;;;;;;2.34;100.00;98891.38;6110691;19;20360;-71
2024/03/22 03:20:22;;;;;;;10.45;5.82;;;;;;;2.32;100.00;98879.13;6110538;19;20018;-71
2024/03/22 03:22:22;;;;;;;12.52;5.72;;;;;;;2.28;100.00;98881.69;6111138;19;20330;-71
2024/03/22 03:24:22;;;;;;;10.38;6.18;;;;;;;2.29;100.00;98871.59;6111110;19;20010;-71
2024/03/22 03:26:23;;;;;;;9.82;6.00;;;;;;;2.23;100.00;98871.72;6108666;19;20013;-71
2024/03/22 03:28:25;;;;;;;10.57;6.05;;;;;;;2.22;100.00;98872.81;6111167;19;20340;-71
2024/03/22 03:30:26;;;;;;;;;;;;;;;2.14;100.00;98868.13;6111399;19;19994;-71
2024/03/22 03:32:27;;;;;;;12.50;5.78;;;;;;;2.14;100.00;98853.69;6110417;19;19980;-71
2024/03/22 03:34:27;;;;;;;10.30;5.55;;;;;;;2.17;100.00;98848.41;6109454;19;20070;-71
2024/03/22 03:36:28;;;;;;;11.25;5.50;;;;;;;2.17;100.00;98840.22;6109550;19;20039;-71
2024/03/22 03:38:28;;;;;;;9.05;5.00;;;;;;;2.15;100.00;98844.38;6109447;19;20011;-71
2024/03/22 03:40:28;;;;;;;9.23;5.45;;;;;;;2.11;100.00;98838.75;6110335;19;19998;-71
2024/03/22 03:42:28;;;;;;;10.73;5.45;;;;;;;2.08;100.00;98844.03;6110527;19;20010;-71
2024/03/22 03:44:29;;;;;;;9.05;5.78;;;;;;;2.00;100.00;98844.78;6110718;19;20459;-71
2024/03/22 03:46:29;;;;;;;9.35;5.50;;;;;;;1.93;100.00;98837.03;6108625;19;20010;-71
2024/03/22 03:48:29;;;;;;;10.05;5.68;;;;;;;1.84;100.00;98828.81;6110472;19;20010;-71
2024/03/22 03:50:30;;;;;;;10.13;5.07;;;;;;;1.81;100.00;98836.78;6110093;19;19998;-71
2024/03/22 03:52:30;;;;;;;10.50;5.65;;;;;;;1.79;100.00;98841.75;6110668;19;20436;-71
2024/03/22 03:54:30;;;;;;;8.55;5.55;;;;;;;1.78;100.00;98829.25;6110956;19;20012;-71
2024/03/22 03:56:30;;;;;;;14.43;7.22;;;;;;;1.77;100.00;98836.63;6109014;19;20074;-71
2024/03/22 03:58:31;;;;;;;11.65;6.70;;;;;;;1.71;100.00;98829.66;6109494;19;20486;-71
2024/03/22 04:00:31;;;;;;;10.23;7.30;;;;;;;1.74;100.00;98839.16;6107998;19;20015;-71
2024/03/22 04:02:31;;;;;;;16.42;8.10;;;;;;;1.69;100.00;98832.72;6110303;19;20366;-71
2024/03/22 04:04:32;;;;;;;10.90;6.95;;;;;;;1.72;100.00;98833.19;6109290;19;20350;-71
2024/03/22 04:06:34;;;;;;;10.00;5.82;;;;;;;1.75;100.00;98829.88;6108583;19;20011;-71
2024/03/22 04:08:34;;;;;;;8.93;6.30;;;;;;;1.82;100.00;98819.28;6110142;19;20007;-71
2024/03/22 04:10:34;;;;;;;11.48;6.60;;;;;;;1.80;100.00;98825.06;6110652;19;19999;-71
2024/03/22 04:12:35;;;;;;;15.43;5.93;;;;;;;1.80;100.00;98832.44;6108944;19;20011;-71
2024/03/22 04:14:35;;;;;;;12.55;5.80;;;;;;;1.82;100.00;98825.59;6110057;19;20043;-71
2024/03/22 04:16:35;;;;;;;11.82;6.32;;;;;;;1.83;100.00;98827.19;6108427;19;20010;-71
2024/03/22 04:18:35;;;;;;;13.88;5.50;;;;;;;1.83;100.00;98835.38;6109723;19;20013;-71
2024/03/22 04:20:36;;;;;;;10.07;5.65;;;;;;;1.84;100.00;98830.72;6109747;19;20553;-71
2024/03/22 04:22:36;;;;;;;8.00;5.65;;;;;;;1.87;100.00;98833.63;6110011;19;20082;-71
2024/03/22 04:24:37;;;;;;;9.07;5.82;;;;;;;1.88;100.00;98826.25;6109569;19;20110;-71
2024/03/22 04:26:37;;;;;;;10.57;6.00;;;;;;;1.91;100.00;98826.44;6108422;19;20014;-71
2024/03/22 04:28:37;;;;;;;10.68;5.75;;;;;;;2.01;100.00;98821.84;6109214;19;20332;-71
2024/03/22 04:30:38;;;;;;;11.40;6.03;;;;;;;2.07;100.00;98818.66;6110181;19;20463;-71
2024/03/22 04:32:38;;;;;;;9.70;6.88;;;;;;;2.13;100.00;98816.56;6108620;19;20007;-71
2024/03/22 04:34:42;;;;;;;10.23;5.22;;;;;;;2.20;100.00;98812.28;6109538;19;21387;-71
2024/03/22 04:36:43;;;;;;;9.48;5.90;;;;;;;2.23;100.00;98816.28;6108460;19;20014;-71
2024/03/22 04:38:43;;;;;;;10.15;5.45;;;;;;;2.24;100.00;98810.53;6109699;19;20007;-71
2024/03/22 04:40:44;;;;;;;14.40;5.85;;;;;;;2.25;100.00;98812.16;6109835;19;20015;-71
2024/03/22 04:42:44;;;;;;;10.77;5.78;;;;;;;2.23;100.00;98803.47;6109931;19;20010;-71
2024/03/22 04:44:44;;;;;;;10.93;6.15;;;;;;;2.25;100.00;98792.25;6109065;19;20555;-71
2024/03/22 04:46:44;;;;;;;12.15;7.28;;;;;;;2.28;100.00;98783.41;6108122;19;20023;-71
2024/03/22 04:48:45;;;;;;;14.20;7.38;;;;;;;2.37;100.00;98784.25;6109013;19;20017;-71
2024/03/22 04:50:45;;;;;;;17.63;8.25;;;;;;;2.57;100.00;98776.59;6110547;19;20021;-71
2024/03/22 04:52:46;;;;;;;16.83;8.02;;;;;;;2.82;100.00;98770.38;6108986;19;20035;-71
2024/03/22 04:54:47;;;;;;;25.60;9.45;;;;;;;3.18;100.00;98772.78;6109791;19;20092;-71
2024/03/22 04:56:47;;;;;;;25.17;11.30;;;;;;;3.47;100.00;98774.03;6108213;19;20094;-71
2024/03/22 04:58:48;;;;;;;24.08;10.05;;;;;;;3.65;100.00;98768.25;6109933;19;20044;-71
2024/03/22 05:00:49;;;;;;;23.58;9.82;;;;;;;3.80;100.00;98766.91;6107384;19;20463;-71
2024/03/22 05:02:49;;;;;;;23.70;10.48;;;;;;;3.95;100.00;98762.84;6107139;19;20011;-71
2024/03/22 05:04:50;;;;;;;25.00;10.00;;;;;;;4.05;100.00;98754.25;6104186;19;20518;-71
2024/03/22 05:06:50;;;;;;;24.85;10.45;;;;;;;4.10;100.00;98756.81;6106341;19;20007;-71
2024/03/22 05:08:50;;;;;;;21.52;9.07;;;;;;;4.21;100.00;98755.31;6098487;19;21372;-71
2024/03/22 05:10:52;;;;;;;20.60;9.75;;;;;;;4.24;100.00;98753.88;6106209;19;20348;-71
2024/03/22 05:12:53;;;;;;;21.23;9.40;;;;;;;4.26;100.00;98751.59;6106904;19;20010;-71
2024/03/22 05:14:53;;;;;;;19.55;9.43;;;;;;;4.25;100.00;98751.94;6108692;19;20519;-71
2024/03/22 05:16:54;;;;;;;29.13;11.20;;;;;;;4.25;100.00;98736.31;6106635;19;20021;-71
2024/03/22 05:18:54;;;;;;;28.85;12.30;;;;;;;4.28;100.00;98738.38;6108031;19;20019;-71
2024/03/22 05:20:54;;;;;;;26.50;11.65;;;;;;;4.30;100.00;98730.63;6108419;19;20049;-71
2024/03/22 05:22:55;;;;;;;29.95;12.05;;;;;;;4.35;100.00;98722.22;6107115;19;19998;-71
2024/03/22 05:24:55;;;;;;;33.47;13.30;;;;;;;4.41;100.00;98731.88;6108808;19;20079;-71
2024/03/22 05:26:55;;;;;;;27.90;12.48;;;;;;;4.61;100.00;98730.28;6104670;19;20490;-71
2024/03/22 05:28:55;;;;;;;29.88;13.00;;;;;;;4.75;100.00;98730.84;6108203;19;20123;-71
2024/03/22 05:30:56;;;;;;;35.45;13.23;;;;;;;4.88;100.00;98725.41;6105760;19;20082;-71
2024/03/22 05:32:57;;;;;;;28.65;12.57;;;;;;;5.07;100.00;98717.53;6107710;19;20039;-71
2024/03/22 05:34:57;;;;;;;27.33;11.32;;;;;;;5.14;100.00;98726.03;6107012;19;20459;-71
2024/03/22 05:36:58;;;;;;;29.60;11.80;;;;;;;5.26;100.00;98722.53;6107037;19;20013;-71
2024/03/22 05:38:59;;;;;;;27.30;11.70;;;;;;;5.39;100.00;98723.38;6107579;19;20046;-71
2024/03/22 05:41:03;;;;;;;31.13;13.15;;;;;;;5.49;100.00;98723.75;6107608;19;20006;-71
2024/03/22 05:43:04;;;;;;;31.60;14.48;;;;;;;5.66;100.00;98720.03;6106735;19;20024;-71
2024/03/22 05:45:05;;;;;;;33.65;14.55;;;;;;;5.85;100.00;98727.72;6107451;19;20346;-71
2024/03/22 05:47:06;;;;;;;34.38;15.00;;;;;;;6.08;100.00;98728.13;6106223;19;20320;-71
2024/03/22 05:49:07;;;;;;;33.95;15.13;;;;;;;6.29;100.00;98717.84;6106691;19;19998;-70
2024/03/22 05:51:07;;;;;;;32.72;14.43;;;;;;;6.39;100.00;98720.13;6107005;19;20062;-70
2024/03/22 05:53:08;;;;;;;32.22;13.80;;;;;;;6.52;100.00;98720.09;6107247;19;20459;-70
2024/03/22 05:55:08;;;;;;;27.70;13.38;;;;;;;6.68;100.00;98712.75;6106481;19;20029;-71
2024/03/22 05:57:09;;;;;;;27.48;12.98;;;;;;;6.69;100.00;98719.84;6105241;19;20335;-71
2024/03/22 05:59:10;;;;;;;24.92;12.15;;;;;;;6.71;100.00;98725.81;6106656;19;20721;-71
2024/03/22 06:01:10;;;;;;;25.77;12.38;;;;;;;6.84;100.00;98729.34;6103472;19;20074;-71
2024/03/22 06:03:10;;;;;;;29.17;12.15;;;;;;;6.88;100.00;98720.06;6106911;19;20010;-71
2024/03/22 06:05:11;;;;;;;27.98;12.77;;;;;;;6.87;100.00;98717.63;6107259;19;20016;-71
2024/03/22 06:07:12;;;;;;;27.67;12.10;;;;;;;6.89;100.00;98720.88;6106351;19;20078;-71
2024/03/22 06:09:13;;;;;;;27.13;12.48;;;;;;;6.94;100.00;98713.16;6104716;19;20003;-71
2024/03/22 06:11:13;;;;;;;25.73;11.98;;;;;;;6.95;100.00;98711.19;6100355;19;20340;-71
2024/03/22 06:13:13;;;;;;;22.35;11.15;;;;;;;6.92;100.00;98709.94;6099495;19;20006;-71
2024/03/22 06:15:14;;;;;;;28.08;11.60;;;;;;;6.95;100.00;98703.78;6092884;19;20007;-71
2024/03/22 06:17:15;;;;;;;29.15;12.48;;;;;;;7.01;100.00;98704.31;6097973;19;20408;-71
2024/03/22 06:19:15;;;;;;;23.88;11.38;;;;;;;7.10;100.00;98710.47;6093193;19;20011;-71
2024/03/22 06:21:21;;;;;;;24.63;11.75;;;;;;;7.25;100.00;98715.22;6091880;19;20006;-71
2024/03/22 06:23:22;;;;;;;24.83;11.45;;;;;;;7.29;100.00;98718.91;6102012;19;20466;-71
2024/03/22 06:25:22;;;;;;;24.65;11.00;;;;;;;7.28;100.00;98706.28;6104021;19;20011;-70
2024/03/22 06:27:22;;;;;;;23.27;10.73;;;;;;;7.25;100.00;98703.41;6103065;19;20021;-71
2024/03/22 06:29:23;;;;;;;24.75;12.13;;;;;;;7.26;100.00;98703.06;6101998;19;20454;-71
2024/03/22 06:31:23;;;;;;;25.42;10.90;;;;;;;7.30;100.00;98703.97;6102965;19;20565;-71
2024/03/22 06:33:24;;;;;;;25.50;11.63;;;;;;;7.38;100.00;98701.44;6104650;19;19999;-71
2024/03/22 06:35:24;;;;;;;22.73;10.95;;;;;;;7.39;100.00;98703.81;6098875;19;20014;-71
2024/03/22 06:37:24;;;;;;;26.45;10.95;;;;;;;7.41;100.00;98703.47;6097669;19;20025;-71
2024/03/22 06:39:24;;;;;;;25.77;12.15;;;;;;;7.47;100.00;98704.81;6101955;19;20007;-71
2024/03/22 06:41:28;;;;;;;29.83;11.32;;;;;;;7.52;100.00;98704.56;6102151;19;20007;-71
2024/03/22 06:43:28;;;;;;;23.48;11.25;;;;;;;7.56;100.00;98708.22;6102619;19;20026;-71
2024/03/22 06:45:29;;;;;;;27.35;12.95;;;;;;;7.62;100.00;98698.56;6104597;19;20037;-71
2024/03/22 06:47:29;;;;;;;28.05;13.52;;;;;;;7.68;100.00;98707.34;6102890;19;20455;-71
2024/03/22 06:49:30;;;;;;;34.72;15.93;;;;;;;7.78;100.00;98704.09;6104719;19;20011;-71
2024/03/22 06:51:30;;;;;;;36.58;18.52;;;;;;;7.79;100.00;98703.72;6104627;19;19999;-70
2024/03/22 06:53:30;;;;;;;36.08;18.40;;;;;;;7.79;100.00;98708.44;6103302;19;20066;-71
2024/03/22 06:55:31;;;;;;;31.95;16.88;;;;;;;7.82;100.00;98705.75;6105403;19;20011;-71
2024/03/22 06:57:32;;;;;;;26.25;11.90;;;;;;;7.81;100.00;98697.84;6102915;19;20002;-71
2024/03/22 06:59:33;;;;;;;31.27;14.40;;;;;;;7.86;100.00;98703.09;6103953;19;20003;-71
2024/03/22 07:01:33;;;;;;;24.05;12.27;;;;;;;7.89;100.00;98696.88;6102423;19;20397;-71
2024/03/22 07:03:33;;;;;;;22.50;11.68;;;;;;;7.99;100.00;98698.31;6103997;19;20007;-71
2024/03/22 07:05:33;;;;;;;32.08;14.05;;;;;;;7.95;100.00;98692.72;6102662;19;20018;-71
2024/03/22 07:07:37;;;;;;;24.83;12.52;;;;;;;7.94;100.00;98702.09;6102753;19;20025;-71
2024/03/22 07:09:38;;;;;;;25.10;13.60;;;;;;;7.96;100.00;98697.06;6103588;19;20010;-71
2024/03/22 07:11:38;;;;;;;29.17;12.70;;;;;;;8.00;100.00;98697.16;6110895;19;20464;-71
2024/03/22 07:13:38;;;;;;;25.08;12.45;;;;;;;8.04;100.00;98701.59;6109835;19;20013;-71
2024/03/22 07:15:39;;;;;;;21.67;10.07;;;;;;;8.09;100.00;98695.00;6109938;19;20018;-71
2024/03/22 07:17:39;;;;;;;21.98;11.02;;;;;;;8.14;100.00;98711.28;6108316;19;20006;-71
2024/03/22 07:19:39;;;;;;;19.90;9.70;;;;;;;8.16;100.00;98697.94;6111608;19;20006;-71
2024/03/22 07:21:39;;;;;;;21.85;11.43;;;;;;;8.23;100.00;98703.63;6108622;19;20006;-71
2024/03/22 07:23:40;;;;;;;20.08;10.15;;;;;;;8.32;100.00;98690.47;6111869;19;20018;-71
2024/03/22 07:25:42;;;;;;;23.35;12.02;;;;;;;8.39;100.00;98695.38;6110302;19;20031;-71
2024/03/22 07:27:43;;;;;;;21.75;10.05;;;;;;;8.46;100.00;98695.53;6109652;19;20021;-71
2024/03/22 07:29:44;;;;;;;24.90;11.48;;;;;;;8.53;100.00;98694.91;6111918;19;20011;-71
2024/03/22 07:31:44;;;;;;;28.08;14.50;;;;;;;8.55;100.00;98687.06;6111855;19;20011;-71
2024/03/22 07:33:45;;;;;;;27.27;13.93;;;;;;;8.53;100.00;98684.69;6109216;19;20007;-71
2024/03/22 07:35:45;;;;;;;28.23;12.10;;;;;;;8.54;100.00;98682.72;6110141;19;20284;-71
2024/03/22 07:37:45;;;;;;;21.80;9.75;;;;;;;8.56;100.00;98694.19;6109994;19;20538;-71
2024/03/22 07:39:46;;;;;;;19.42;9.63;;;;;;;8.54;100.00;98686.28;6107111;19;20003;-71
2024/03/22 07:41:46;;;;;;;21.17;10.30;;;;;;;8.52;100.00;98676.75;6109115;19;20014;-71
2024/03/22 07:43:46;;;;;;;22.85;9.68;;;;;;;8.55;100.00;98679.59;6109087;19;20028;-71
2024/03/22 07:45:47;;;;;;;17.92;8.98;;;;;;;8.62;100.00;98681.72;6109127;19;20014;-71
2024/03/22 07:47:48;;;;;;;16.42;9.05;;;;;;;8.66;100.00;98685.34;6109666;19;20046;-71
2024/03/22 07:49:48;;;;;;;16.13;7.22;;;;;;;8.72;100.00;98689.44;6109995;19;20017;-71
2024/03/22 07:51:49;;;;;;;16.25;7.65;;;;;;;8.77;100.00;98680.88;6109462;19;20014;-71
2024/03/22 07:53:49;;;;;;;14.20;7.25;;;;;;;8.84;100.00;98681.00;6109583;19;20350;-71
2024/03/22 07:55:49;;;;;;;15.27;7.00;;;;;;;8.92;100.00;98677.25;6109408;19;20129;-71
2024/03/22 07:57:50;;;;;;;16.45;7.80;;;;;;;8.99;100.00;98679.34;6110529;19;20077;-71
2024/03/22 07:59:51;;;;;;;14.43;6.97;;;;;;;8.99;100.00;98676.59;6108653;19;20010;-71
2024/03/22 08:01:51;;;;;;;13.40;6.88;;;;;;;9.02;100.00;98675.91;6109513;19;20031;-71
2024/03/22 08:03:51;;;;;;;18.15;8.00;;;;;;;9.15;100.00;98671.81;6110299;19;20010;-71
2024/03/22 08:05:52;;;;;;;16.70;7.93;;;;;;;9.25;100.00;98668.44;6109728;19;20475;-71
2024/03/22 08:07:52;;;;;;;15.60;7.72;;;;;;;9.41;100.00;98670.31;6106763;19;20006;-71
2024/03/22 08:09:52;;;;;;;15.73;6.78;;;;;;;9.47;100.00;98671.63;6110614;19;20480;-71
2024/03/22 08:11:53;;;;;;;14.57;5.97;;;;;;;9.51;100.00;98658.69;6110441;19;20014;-71
2024/03/22 08:14:01;;;;;;;13.15;7.05;;;;;;;9.52;100.00;98660.31;6109537;19;20030;-71
2024/03/22 08:16:02;;;;;;;16.02;7.25;;;;;;;9.58;100.00;98665.13;6109339;19;20003;-71
2024/03/22 08:18:02;;;;;;;11.88;6.28;;;;;;;9.66;100.00;98655.00;6108220;19;20003;-72
2024/03/22 08:20:04;;;;;;;14.07;6.35;;;;;;;9.80;100.00;98657.25;6109711;19;20021;-71
2024/03/22 08:22:04;;;;;;;14.90;6.53;;;;;;;9.86;100.00;98655.78;6109567;19;20010;-71
2024/03/22 08:24:05;;;;;;;14.98;6.43;;;;;;;9.91;100.00;98657.41;6109578;19;20470;-71
2024/03/22 08:26:05;;;;;;;15.93;6.78;;;;;;;9.94;100.00;98654.72;6108451;19;20007;-71
2024/03/22 08:28:05;;;;;;;16.42;7.18;;;;;;;9.99;100.00;98657.16;6109961;19;20491;-71
2024/03/22 08:30:06;;;;;;;13.35;6.57;;;;;;;10.02;100.00;98659.22;6108423;19;20088;-71
2024/03/22 08:32:07;;;;;;;14.35;7.30;;;;;;;10.12;100.00;98655.00;6109212;19;20475;-71
2024/03/22 08:34:08;;;;;;;13.73;7.40;;;;;;;10.17;100.00;98656.66;6109753;19;20432;-71
2024/03/22 08:36:08;;;;;;;17.83;7.28;;;;;;;10.20;100.00;98653.16;6107522;19;20433;-71
2024/03/22 08:38:10;;;;;;;16.90;6.40;;;;;;;10.20;100.00;98642.09;6109369;19;20006;-71
2024/03/22 08:40:11;;;;;;;13.00;6.45;;;;;;;10.26;100.00;98649.75;6108943;19;20021;-71
2024/03/22 08:42:11;;;;;;;12.38;6.57;;;;;;;10.26;100.00;98643.38;6109416;19;19995;-71
2024/03/22 08:44:11;;;;;;;15.00;7.13;;;;;;;10.25;100.00;98639.81;6110314;19;20002;-71
2024/03/22 08:46:12;;;;;;;9.98;5.53;;;;;;;10.35;100.00;98632.88;6105408;19;20820;-71
2024/03/22 08:48:12;;;;;;;9.48;5.30;;;;;;;10.40;100.00;98636.09;6109521;19;19995;-71
2024/03/22 08:50:12;;;;;;;11.65;6.07;;;;;;;10.44;100.00;98633.41;6109621;19;20002;-71
2024/03/22 08:52:13;;;;;;;11.63;6.25;;;;;;;10.49;100.00;98630.31;6109133;19;20009;-71
2024/03/22 08:54:13;;;;;;;12.18;6.13;;;;;;;10.57;100.00;98637.53;6108961;19;19999;-71
2024/03/22 08:56:14;;;;;;;10.18;5.43;;;;;;;10.66;100.00;98631.72;6107417;19;20451;-71
2024/03/22 08:58:15;;;;;;;11.35;5.90;;;;;;;10.80;100.00;98623.63;6108937;19;20005;-71
2024/03/22 09:00:15;;;;;;;10.55;5.80;;;;;;;10.91;100.00;98623.75;6107184;19;20006;-71
2024/03/22 09:02:16;;;;;;;9.93;5.72;;;;;;;11.02;100.00;98627.47;6109506;19;20071;-71
2024/03/22 09:04:16;;;;;;;17.77;6.53;;;;;;;11.07;100.00;98615.22;6108529;19;20294;-71
2024/03/22 09:06:17;;;;;;;12.77;5.63;;;;;;;11.08;100.00;98614.84;6107777;19;20005;-71
2024/03/22 09:08:17;;;;;;;11.23;5.90;;;;;;;11.10;100.00;98611.72;6109749;19;20003;-71
2024/03/22 09:10:17;;;;;;;11.65;6.35;;;;;;;11.14;100.00;98607.81;6108148;19;20608;-71
2024/03/22 09:12:19;;;;;;;11.02;6.60;;;;;;;11.15;100.00;98606.63;6108753;19;20003;-71
2024/03/22 09:14:19;;;;;;;10.82;5.85;;;;;;;11.20;100.00;98608.28;6109823;19;19999;-71
2024/03/22 09:16:23;;;;;;;11.05;5.90;;;;;;;11.21;100.00;98585.72;6106863;19;20002;-71
2024/03/22 09:18:24;;;;;;;11.50;6.45;;;;;;;11.20;100.00;98597.19;6109537;19;20443;-71
2024/03/22 09:20:24;;;;;;;11.93;6.40;;;;;;;11.20;100.00;98598.00;6108706;19;20027;-71